sensor_id;sensor_type;location;lat;lon;timestamp;P1;durP1;ratioP1;P2;durP2;ratioP2
54977;SDS011;40873;47.522;19.106;2024-01-06T00:00:27;39.95;;;21.95;;
54977;SDS011;40873;47.522;19.106;2024-01-06T00:03:14;39.00;;;20.85;;
54977;SDS011;40873;47.522;19.106;2024-01-06T00:05:41;40.47;;;21.98;;
54977;SDS011;40873;47.522;19.106;2024-01-06T00:08:08;39.47;;;20.88;;
54977;SDS011;40873;47.522;19.106;2024-01-06T00:10:35;37.70;;;21.70;;
54977;SDS011;40873;47.522;19.106;2024-01-06T00:13:02;44.67;;;22.45;;
54977;SDS011;40873;47.522;19.106;2024-01-06T00:15:29;44.80;;;21.77;;
54977;SDS011;40873;47.522;19.106;2024-01-06T00:17:56;42.97;;;22.15;;
54977;SDS011;40873;47.522;19.106;2024-01-06T00:20:23;43.97;;;22.42;;
54977;SDS011;40873;47.522;19.106;2024-01-06T00:22:50;41.78;;;22.15;;
54977;SDS011;40873;47.522;19.106;2024-01-06T00:25:17;42.22;;;21.25;;
54977;SDS011;40873;47.522;19.106;2024-01-06T00:27:44;43.22;;;22.63;;
54977;SDS011;40873;47.522;19.106;2024-01-06T00:30:11;46.95;;;22.52;;
54977;SDS011;40873;47.522;19.106;2024-01-06T00:32:39;45.60;;;22.15;;
54977;SDS011;40873;47.522;19.106;2024-01-06T00:35:06;46.38;;;22.55;;
54977;SDS011;40873;47.522;19.106;2024-01-06T00:37:33;45.95;;;22.60;;
54977;SDS011;40873;47.522;19.106;2024-01-06T00:40:00;34.33;;;20.90;;
54977;SDS011;40873;47.522;19.106;2024-01-06T00:42:29;35.22;;;21.20;;
54977;SDS011;40873;47.522;19.106;2024-01-06T00:44:56;39.08;;;21.70;;
54977;SDS011;40873;47.522;19.106;2024-01-06T00:47:23;36.53;;;20.98;;
54977;SDS011;40873;47.522;19.106;2024-01-06T00:49:51;42.72;;;22.17;;
54977;SDS011;40873;47.522;19.106;2024-01-06T00:52:18;39.05;;;21.05;;
54977;SDS011;40873;47.522;19.106;2024-01-06T00:54:45;38.38;;;21.80;;
54977;SDS011;40873;47.522;19.106;2024-01-06T00:57:13;44.75;;;25.15;;
54977;SDS011;40873;47.522;19.106;2024-01-06T00:59:41;42.83;;;22.42;;
54977;SDS011;40873;47.522;19.106;2024-01-06T01:02:08;39.63;;;21.63;;
54977;SDS011;40873;47.522;19.106;2024-01-06T01:04:35;40.28;;;21.05;;
54977;SDS011;40873;47.522;19.106;2024-01-06T01:07:02;40.35;;;21.88;;
54977;SDS011;40873;47.522;19.106;2024-01-06T01:09:29;43.00;;;21.63;;
54977;SDS011;40873;47.522;19.106;2024-01-06T01:11:56;38.17;;;22.20;;
54977;SDS011;40873;47.522;19.106;2024-01-06T01:14:26;39.90;;;20.40;;
54977;SDS011;40873;47.522;19.106;2024-01-06T01:16:53;40.72;;;21.17;;
54977;SDS011;40873;47.522;19.106;2024-01-06T01:19:20;38.72;;;21.25;;
54977;SDS011;40873;47.522;19.106;2024-01-06T01:21:47;42.42;;;20.40;;
54977;SDS011;40873;47.522;19.106;2024-01-06T01:24:14;38.42;;;20.77;;
54977;SDS011;40873;47.522;19.106;2024-01-06T01:26:41;36.97;;;19.92;;
54977;SDS011;40873;47.522;19.106;2024-01-06T01:29:08;39.45;;;20.35;;
54977;SDS011;40873;47.522;19.106;2024-01-06T01:31:35;32.25;;;18.55;;
54977;SDS011;40873;47.522;19.106;2024-01-06T01:34:08;37.72;;;21.35;;
54977;SDS011;40873;47.522;19.106;2024-01-06T01:36:35;39.58;;;21.85;;
54977;SDS011;40873;47.522;19.106;2024-01-06T01:39:02;37.47;;;20.95;;
54977;SDS011;40873;47.522;19.106;2024-01-06T01:41:29;37.35;;;20.80;;
54977;SDS011;40873;47.522;19.106;2024-01-06T01:43:56;36.50;;;21.20;;
54977;SDS011;40873;47.522;19.106;2024-01-06T01:46:27;35.72;;;20.38;;
54977;SDS011;40873;47.522;19.106;2024-01-06T01:48:55;40.95;;;21.35;;
54977;SDS011;40873;47.522;19.106;2024-01-06T01:51:24;34.20;;;19.23;;
54977;SDS011;40873;47.522;19.106;2024-01-06T01:53:55;34.83;;;19.77;;
54977;SDS011;40873;47.522;19.106;2024-01-06T01:56:24;36.30;;;19.70;;
54977;SDS011;40873;47.522;19.106;2024-01-06T01:58:51;38.63;;;19.05;;
54977;SDS011;40873;47.522;19.106;2024-01-06T02:01:19;39.20;;;20.55;;
54977;SDS011;40873;47.522;19.106;2024-01-06T02:03:46;37.53;;;20.50;;
54977;SDS011;40873;47.522;19.106;2024-01-06T02:06:13;36.30;;;20.38;;
54977;SDS011;40873;47.522;19.106;2024-01-06T02:08:40;34.38;;;18.98;;
54977;SDS011;40873;47.522;19.106;2024-01-06T02:11:07;32.72;;;19.00;;
54977;SDS011;40873;47.522;19.106;2024-01-06T02:13:35;35.33;;;20.02;;
54977;SDS011;40873;47.522;19.106;2024-01-06T02:16:03;34.20;;;18.98;;
54977;SDS011;40873;47.522;19.106;2024-01-06T02:18:31;32.50;;;19.33;;
54977;SDS011;40873;47.522;19.106;2024-01-06T02:21:00;38.13;;;19.85;;
54977;SDS011;40873;47.522;19.106;2024-01-06T02:23:28;38.28;;;20.27;;
54977;SDS011;40873;47.522;19.106;2024-01-06T02:25:56;35.60;;;19.58;;
54977;SDS011;40873;47.522;19.106;2024-01-06T02:28:23;35.30;;;20.17;;
54977;SDS011;40873;47.522;19.106;2024-01-06T02:30:51;34.28;;;19.10;;
54977;SDS011;40873;47.522;19.106;2024-01-06T02:33:18;36.40;;;19.23;;
54977;SDS011;40873;47.522;19.106;2024-01-06T02:35:46;36.58;;;19.58;;
54977;SDS011;40873;47.522;19.106;2024-01-06T02:38:15;32.42;;;19.92;;
54977;SDS011;40873;47.522;19.106;2024-01-06T02:40:42;39.97;;;20.15;;
54977;SDS011;40873;47.522;19.106;2024-01-06T02:43:10;37.30;;;19.80;;
54977;SDS011;40873;47.522;19.106;2024-01-06T02:45:36;39.67;;;18.73;;
54977;SDS011;40873;47.522;19.106;2024-01-06T02:48:04;35.47;;;19.83;;
54977;SDS011;40873;47.522;19.106;2024-01-06T02:50:31;33.30;;;19.38;;
54977;SDS011;40873;47.522;19.106;2024-01-06T02:52:59;34.55;;;18.52;;
54977;SDS011;40873;47.522;19.106;2024-01-06T02:55:25;33.67;;;17.80;;
54977;SDS011;40873;47.522;19.106;2024-01-06T02:57:53;34.38;;;18.83;;
54977;SDS011;40873;47.522;19.106;2024-01-06T03:00:23;35.45;;;20.17;;
54977;SDS011;40873;47.522;19.106;2024-01-06T03:02:50;33.95;;;20.02;;
54977;SDS011;40873;47.522;19.106;2024-01-06T03:05:17;36.38;;;19.48;;
54977;SDS011;40873;47.522;19.106;2024-01-06T03:07:47;37.83;;;20.30;;
54977;SDS011;40873;47.522;19.106;2024-01-06T03:10:14;36.88;;;19.35;;
54977;SDS011;40873;47.522;19.106;2024-01-06T03:12:41;34.78;;;18.98;;
54977;SDS011;40873;47.522;19.106;2024-01-06T03:15:08;36.35;;;19.25;;
54977;SDS011;40873;47.522;19.106;2024-01-06T03:17:38;33.70;;;18.75;;
54977;SDS011;40873;47.522;19.106;2024-01-06T03:20:05;32.47;;;18.73;;
54977;SDS011;40873;47.522;19.106;2024-01-06T03:22:34;32.38;;;17.98;;
54977;SDS011;40873;47.522;19.106;2024-01-06T03:25:01;32.38;;;18.67;;
54977;SDS011;40873;47.522;19.106;2024-01-06T03:27:29;39.50;;;19.00;;
54977;SDS011;40873;47.522;19.106;2024-01-06T03:29:56;31.70;;;19.10;;
54977;SDS011;40873;47.522;19.106;2024-01-06T03:32:23;35.97;;;19.85;;
54977;SDS011;40873;47.522;19.106;2024-01-06T03:34:51;36.45;;;19.02;;
54977;SDS011;40873;47.522;19.106;2024-01-06T03:37:18;34.05;;;19.42;;
54977;SDS011;40873;47.522;19.106;2024-01-06T03:39:46;37.40;;;19.70;;
54977;SDS011;40873;47.522;19.106;2024-01-06T03:42:13;36.50;;;19.00;;
54977;SDS011;40873;47.522;19.106;2024-01-06T03:44:40;37.95;;;19.85;;
54977;SDS011;40873;47.522;19.106;2024-01-06T03:47:08;29.20;;;18.35;;
54977;SDS011;40873;47.522;19.106;2024-01-06T03:49:34;35.03;;;18.52;;
54977;SDS011;40873;47.522;19.106;2024-01-06T03:52:02;28.98;;;18.38;;
54977;SDS011;40873;47.522;19.106;2024-01-06T03:54:29;38.00;;;18.95;;
54977;SDS011;40873;47.522;19.106;2024-01-06T03:56:58;29.90;;;17.50;;
54977;SDS011;40873;47.522;19.106;2024-01-06T03:59:28;30.88;;;17.05;;
54977;SDS011;40873;47.522;19.106;2024-01-06T04:01:55;37.50;;;18.83;;
54977;SDS011;40873;47.522;19.106;2024-01-06T04:04:21;31.83;;;16.13;;
54977;SDS011;40873;47.522;19.106;2024-01-06T04:06:49;28.98;;;17.83;;
54977;SDS011;40873;47.522;19.106;2024-01-06T04:09:16;32.30;;;17.55;;
54977;SDS011;40873;47.522;19.106;2024-01-06T04:11:44;36.10;;;18.13;;
54977;SDS011;40873;47.522;19.106;2024-01-06T04:14:11;30.33;;;16.17;;
54977;SDS011;40873;47.522;19.106;2024-01-06T04:16:39;30.88;;;17.13;;
54977;SDS011;40873;47.522;19.106;2024-01-06T04:19:05;32.90;;;17.92;;
54977;SDS011;40873;47.522;19.106;2024-01-06T04:21:34;31.50;;;16.60;;
54977;SDS011;40873;47.522;19.106;2024-01-06T04:24:01;32.78;;;16.80;;
54977;SDS011;40873;47.522;19.106;2024-01-06T04:26:28;36.53;;;18.45;;
54977;SDS011;40873;47.522;19.106;2024-01-06T04:28:56;36.50;;;19.17;;
54977;SDS011;40873;47.522;19.106;2024-01-06T04:31:23;34.75;;;18.13;;
54977;SDS011;40873;47.522;19.106;2024-01-06T04:33:50;31.42;;;18.42;;
54977;SDS011;40873;47.522;19.106;2024-01-06T04:36:17;31.88;;;16.77;;
54977;SDS011;40873;47.522;19.106;2024-01-06T04:38:44;34.33;;;17.83;;
54977;SDS011;40873;47.522;19.106;2024-01-06T04:41:11;31.60;;;17.45;;
54977;SDS011;40873;47.522;19.106;2024-01-06T04:43:38;29.67;;;17.98;;
54977;SDS011;40873;47.522;19.106;2024-01-06T04:46:05;29.77;;;16.90;;
54977;SDS011;40873;47.522;19.106;2024-01-06T04:48:32;31.08;;;18.17;;
54977;SDS011;40873;47.522;19.106;2024-01-06T04:51:02;30.00;;;17.30;;
54977;SDS011;40873;47.522;19.106;2024-01-06T04:53:29;32.70;;;18.38;;
54977;SDS011;40873;47.522;19.106;2024-01-06T04:55:57;36.65;;;18.13;;
54977;SDS011;40873;47.522;19.106;2024-01-06T04:58:23;34.33;;;16.67;;
54977;SDS011;40873;47.522;19.106;2024-01-06T05:00:50;28.35;;;16.67;;
54977;SDS011;40873;47.522;19.106;2024-01-06T05:03:19;30.23;;;18.63;;
54977;SDS011;40873;47.522;19.106;2024-01-06T05:05:49;31.92;;;17.92;;
54977;SDS011;40873;47.522;19.106;2024-01-06T05:08:15;38.45;;;18.38;;
54977;SDS011;40873;47.522;19.106;2024-01-06T05:10:44;30.63;;;16.80;;
54977;SDS011;40873;47.522;19.106;2024-01-06T05:13:18;31.10;;;17.25;;
54977;SDS011;40873;47.522;19.106;2024-01-06T05:15:45;38.33;;;18.52;;
54977;SDS011;40873;47.522;19.106;2024-01-06T05:18:12;31.77;;;17.90;;
54977;SDS011;40873;47.522;19.106;2024-01-06T05:20:41;32.78;;;17.17;;
54977;SDS011;40873;47.522;19.106;2024-01-06T05:23:08;33.30;;;17.27;;
54977;SDS011;40873;47.522;19.106;2024-01-06T05:25:35;29.13;;;17.98;;
54977;SDS011;40873;47.522;19.106;2024-01-06T05:28:02;30.50;;;17.38;;
54977;SDS011;40873;47.522;19.106;2024-01-06T05:30:29;29.40;;;16.67;;
54977;SDS011;40873;47.522;19.106;2024-01-06T05:32:56;28.73;;;16.92;;
54977;SDS011;40873;47.522;19.106;2024-01-06T05:35:24;27.80;;;16.10;;
54977;SDS011;40873;47.522;19.106;2024-01-06T05:37:50;34.97;;;17.00;;
54977;SDS011;40873;47.522;19.106;2024-01-06T05:40:18;31.15;;;16.83;;
54977;SDS011;40873;47.522;19.106;2024-01-06T05:42:45;30.92;;;17.13;;
54977;SDS011;40873;47.522;19.106;2024-01-06T05:45:12;32.58;;;15.98;;
54977;SDS011;40873;47.522;19.106;2024-01-06T05:47:39;25.42;;;15.85;;
54977;SDS011;40873;47.522;19.106;2024-01-06T05:50:07;31.95;;;18.67;;
54977;SDS011;40873;47.522;19.106;2024-01-06T05:52:36;31.08;;;16.63;;
54977;SDS011;40873;47.522;19.106;2024-01-06T05:55:04;31.42;;;17.73;;
54977;SDS011;40873;47.522;19.106;2024-01-06T05:57:31;31.65;;;16.80;;
54977;SDS011;40873;47.522;19.106;2024-01-06T05:59:59;30.52;;;17.58;;
54977;SDS011;40873;47.522;19.106;2024-01-06T06:02:26;31.70;;;17.33;;
54977;SDS011;40873;47.522;19.106;2024-01-06T06:04:53;31.30;;;17.35;;
54977;SDS011;40873;47.522;19.106;2024-01-06T06:07:20;30.88;;;16.98;;
54977;SDS011;40873;47.522;19.106;2024-01-06T06:09:47;25.73;;;15.82;;
54977;SDS011;40873;47.522;19.106;2024-01-06T06:12:14;26.95;;;16.73;;
54977;SDS011;40873;47.522;19.106;2024-01-06T06:14:42;27.50;;;16.42;;
54977;SDS011;40873;47.522;19.106;2024-01-06T06:17:08;32.42;;;16.38;;
54977;SDS011;40873;47.522;19.106;2024-01-06T06:19:35;29.88;;;15.52;;
54977;SDS011;40873;47.522;19.106;2024-01-06T06:22:03;35.63;;;16.88;;
54977;SDS011;40873;47.522;19.106;2024-01-06T06:24:30;31.02;;;15.68;;
54977;SDS011;40873;47.522;19.106;2024-01-06T06:26:57;27.77;;;17.25;;
54977;SDS011;40873;47.522;19.106;2024-01-06T06:29:24;27.73;;;16.67;;
54977;SDS011;40873;47.522;19.106;2024-01-06T06:31:51;28.25;;;16.05;;
54977;SDS011;40873;47.522;19.106;2024-01-06T06:34:19;29.52;;;16.45;;
54977;SDS011;40873;47.522;19.106;2024-01-06T06:36:46;29.40;;;16.08;;
54977;SDS011;40873;47.522;19.106;2024-01-06T06:39:13;28.65;;;16.55;;
54977;SDS011;40873;47.522;19.106;2024-01-06T06:41:40;32.13;;;17.25;;
54977;SDS011;40873;47.522;19.106;2024-01-06T06:44:07;32.75;;;15.30;;
54977;SDS011;40873;47.522;19.106;2024-01-06T06:46:34;25.90;;;15.88;;
54977;SDS011;40873;47.522;19.106;2024-01-06T06:49:01;27.08;;;16.30;;
54977;SDS011;40873;47.522;19.106;2024-01-06T06:51:29;27.80;;;15.43;;
54977;SDS011;40873;47.522;19.106;2024-01-06T06:53:57;25.25;;;13.95;;
54977;SDS011;40873;47.522;19.106;2024-01-06T06:56:25;24.85;;;15.30;;
54977;SDS011;40873;47.522;19.106;2024-01-06T06:58:52;23.13;;;13.80;;
54977;SDS011;40873;47.522;19.106;2024-01-06T07:01:19;31.65;;;15.93;;
54977;SDS011;40873;47.522;19.106;2024-01-06T07:03:46;26.50;;;14.50;;
54977;SDS011;40873;47.522;19.106;2024-01-06T07:06:14;29.85;;;15.27;;
54977;SDS011;40873;47.522;19.106;2024-01-06T07:08:42;27.33;;;15.98;;
54977;SDS011;40873;47.522;19.106;2024-01-06T07:11:09;25.92;;;15.00;;
54977;SDS011;40873;47.522;19.106;2024-01-06T07:13:38;27.33;;;15.63;;
54977;SDS011;40873;47.522;19.106;2024-01-06T07:16:05;32.97;;;14.48;;
54977;SDS011;40873;47.522;19.106;2024-01-06T07:18:44;27.15;;;15.75;;
54977;SDS011;40873;47.522;19.106;2024-01-06T07:21:11;28.33;;;14.57;;
54977;SDS011;40873;47.522;19.106;2024-01-06T07:23:39;22.35;;;13.88;;
54977;SDS011;40873;47.522;19.106;2024-01-06T07:26:06;24.20;;;14.65;;
54977;SDS011;40873;47.522;19.106;2024-01-06T07:28:34;26.40;;;13.75;;
54977;SDS011;40873;47.522;19.106;2024-01-06T07:31:01;26.17;;;13.50;;
54977;SDS011;40873;47.522;19.106;2024-01-06T07:33:29;25.85;;;14.00;;
54977;SDS011;40873;47.522;19.106;2024-01-06T07:35:56;23.73;;;13.20;;
54977;SDS011;40873;47.522;19.106;2024-01-06T07:38:23;26.88;;;13.05;;
54977;SDS011;40873;47.522;19.106;2024-01-06T07:40:50;21.90;;;12.82;;
54977;SDS011;40873;47.522;19.106;2024-01-06T07:43:17;20.80;;;12.90;;
54977;SDS011;40873;47.522;19.106;2024-01-06T07:45:44;21.92;;;12.15;;
54977;SDS011;40873;47.522;19.106;2024-01-06T07:48:11;23.15;;;13.73;;
54977;SDS011;40873;47.522;19.106;2024-01-06T07:50:38;23.92;;;11.90;;
54977;SDS011;40873;47.522;19.106;2024-01-06T07:53:05;25.30;;;12.40;;
54977;SDS011;40873;47.522;19.106;2024-01-06T07:55:32;22.55;;;12.65;;
54977;SDS011;40873;47.522;19.106;2024-01-06T07:57:59;23.33;;;12.73;;
54977;SDS011;40873;47.522;19.106;2024-01-06T08:00:26;20.02;;;12.30;;
54977;SDS011;40873;47.522;19.106;2024-01-06T08:02:53;22.73;;;11.95;;
54977;SDS011;40873;47.522;19.106;2024-01-06T08:05:21;20.48;;;11.45;;
54977;SDS011;40873;47.522;19.106;2024-01-06T08:07:49;25.85;;;12.23;;
54977;SDS011;40873;47.522;19.106;2024-01-06T08:10:16;20.20;;;11.88;;
54977;SDS011;40873;47.522;19.106;2024-01-06T08:12:44;22.55;;;12.38;;
54977;SDS011;40873;47.522;19.106;2024-01-06T08:15:12;24.83;;;12.88;;
54977;SDS011;40873;47.522;19.106;2024-01-06T08:17:39;21.05;;;11.05;;
54977;SDS011;40873;47.522;19.106;2024-01-06T08:20:07;20.13;;;11.32;;
54977;SDS011;40873;47.522;19.106;2024-01-06T08:22:35;22.25;;;12.10;;
54977;SDS011;40873;47.522;19.106;2024-01-06T08:25:02;20.80;;;11.90;;
54977;SDS011;40873;47.522;19.106;2024-01-06T08:27:29;22.83;;;12.30;;
54977;SDS011;40873;47.522;19.106;2024-01-06T08:29:56;18.73;;;11.23;;
54977;SDS011;40873;47.522;19.106;2024-01-06T08:32:23;23.30;;;12.77;;
54977;SDS011;40873;47.522;19.106;2024-01-06T08:34:50;18.58;;;12.35;;
54977;SDS011;40873;47.522;19.106;2024-01-06T08:37:17;21.50;;;11.38;;
54977;SDS011;40873;47.522;19.106;2024-01-06T08:39:44;24.88;;;13.80;;
54977;SDS011;40873;47.522;19.106;2024-01-06T08:42:11;22.02;;;12.30;;
54977;SDS011;40873;47.522;19.106;2024-01-06T08:44:38;24.50;;;13.00;;
54977;SDS011;40873;47.522;19.106;2024-01-06T08:47:05;23.65;;;12.00;;
54977;SDS011;40873;47.522;19.106;2024-01-06T08:49:33;22.15;;;12.32;;
54977;SDS011;40873;47.522;19.106;2024-01-06T08:52:00;22.33;;;13.70;;
54977;SDS011;40873;47.522;19.106;2024-01-06T08:54:27;19.48;;;11.32;;
54977;SDS011;40873;47.522;19.106;2024-01-06T08:56:54;24.83;;;12.20;;
54977;SDS011;40873;47.522;19.106;2024-01-06T08:59:22;22.38;;;12.35;;
54977;SDS011;40873;47.522;19.106;2024-01-06T09:01:49;19.33;;;11.23;;
54977;SDS011;40873;47.522;19.106;2024-01-06T09:04:16;26.38;;;11.90;;
54977;SDS011;40873;47.522;19.106;2024-01-06T09:06:43;25.05;;;12.52;;
54977;SDS011;40873;47.522;19.106;2024-01-06T09:09:10;22.17;;;12.13;;
54977;SDS011;40873;47.522;19.106;2024-01-06T09:11:37;23.00;;;11.90;;
54977;SDS011;40873;47.522;19.106;2024-01-06T09:14:04;19.92;;;10.57;;
54977;SDS011;40873;47.522;19.106;2024-01-06T09:16:32;19.17;;;12.15;;
54977;SDS011;40873;47.522;19.106;2024-01-06T09:18:59;20.35;;;11.65;;
54977;SDS011;40873;47.522;19.106;2024-01-06T09:21:26;24.85;;;13.27;;
54977;SDS011;40873;47.522;19.106;2024-01-06T09:23:53;19.85;;;12.82;;
54977;SDS011;40873;47.522;19.106;2024-01-06T09:26:20;21.30;;;11.50;;
54977;SDS011;40873;47.522;19.106;2024-01-06T09:28:47;19.17;;;11.48;;
54977;SDS011;40873;47.522;19.106;2024-01-06T09:31:14;18.85;;;11.57;;
54977;SDS011;40873;47.522;19.106;2024-01-06T09:33:42;18.50;;;11.20;;
54977;SDS011;40873;47.522;19.106;2024-01-06T09:36:09;26.42;;;11.43;;
54977;SDS011;40873;47.522;19.106;2024-01-06T09:38:39;16.85;;;10.50;;
54977;SDS011;40873;47.522;19.106;2024-01-06T09:41:06;18.05;;;10.82;;
54977;SDS011;40873;47.522;19.106;2024-01-06T09:43:33;21.40;;;9.90;;
54977;SDS011;40873;47.522;19.106;2024-01-06T09:46:23;22.52;;;10.85;;
54977;SDS011;40873;47.522;19.106;2024-01-06T09:48:56;20.48;;;10.20;;
54977;SDS011;40873;47.522;19.106;2024-01-06T09:51:25;19.60;;;9.27;;
54977;SDS011;40873;47.522;19.106;2024-01-06T09:53:57;20.15;;;10.32;;
54977;SDS011;40873;47.522;19.106;2024-01-06T09:56:26;19.27;;;10.68;;
54977;SDS011;40873;47.522;19.106;2024-01-06T09:58:55;25.35;;;12.65;;
54977;SDS011;40873;47.522;19.106;2024-01-06T10:01:22;21.80;;;11.20;;
54977;SDS011;40873;47.522;19.106;2024-01-06T10:03:50;21.95;;;11.60;;
54977;SDS011;40873;47.522;19.106;2024-01-06T10:06:17;17.77;;;10.70;;
54977;SDS011;40873;47.522;19.106;2024-01-06T10:08:51;20.38;;;9.90;;
54977;SDS011;40873;47.522;19.106;2024-01-06T10:11:19;21.73;;;10.82;;
54977;SDS011;40873;47.522;19.106;2024-01-06T10:13:49;17.38;;;9.10;;
54977;SDS011;40873;47.522;19.106;2024-01-06T10:16:18;19.95;;;10.23;;
54977;SDS011;40873;47.522;19.106;2024-01-06T10:18:45;19.67;;;10.85;;
54977;SDS011;40873;47.522;19.106;2024-01-06T10:21:20;21.88;;;10.18;;
54977;SDS011;40873;47.522;19.106;2024-01-06T10:23:49;18.83;;;10.73;;
54977;SDS011;40873;47.522;19.106;2024-01-06T10:26:17;18.95;;;10.20;;
54977;SDS011;40873;47.522;19.106;2024-01-06T10:28:44;18.55;;;11.20;;
54977;SDS011;40873;47.522;19.106;2024-01-06T10:31:11;24.02;;;11.85;;
54977;SDS011;40873;47.522;19.106;2024-01-06T10:33:39;20.45;;;11.18;;
54977;SDS011;40873;47.522;19.106;2024-01-06T10:36:06;20.58;;;10.82;;
54977;SDS011;40873;47.522;19.106;2024-01-06T10:38:35;19.27;;;10.45;;
54977;SDS011;40873;47.522;19.106;2024-01-06T10:41:03;20.38;;;11.18;;
54977;SDS011;40873;47.522;19.106;2024-01-06T10:43:37;16.17;;;10.32;;
54977;SDS011;40873;47.522;19.106;2024-01-06T10:46:07;18.88;;;10.30;;
54977;SDS011;40873;47.522;19.106;2024-01-06T10:48:39;19.80;;;10.93;;
54977;SDS011;40873;47.522;19.106;2024-01-06T10:51:10;19.70;;;11.10;;
54977;SDS011;40873;47.522;19.106;2024-01-06T10:53:38;23.70;;;12.48;;
54977;SDS011;40873;47.522;19.106;2024-01-06T10:56:08;20.52;;;11.52;;
54977;SDS011;40873;47.522;19.106;2024-01-06T10:58:46;20.45;;;10.88;;
54977;SDS011;40873;47.522;19.106;2024-01-06T11:01:19;17.80;;;11.25;;
54977;SDS011;40873;47.522;19.106;2024-01-06T11:03:54;22.90;;;11.30;;
54977;SDS011;40873;47.522;19.106;2024-01-06T11:06:22;20.23;;;11.23;;
54977;SDS011;40873;47.522;19.106;2024-01-06T11:08:56;21.67;;;12.57;;
54977;SDS011;40873;47.522;19.106;2024-01-06T11:11:28;21.60;;;12.82;;
54977;SDS011;40873;47.522;19.106;2024-01-06T11:14:18;21.67;;;10.85;;
54977;SDS011;40873;47.522;19.106;2024-01-06T11:16:45;18.38;;;11.10;;
54977;SDS011;40873;47.522;19.106;2024-01-06T11:24:54;22.40;;;12.38;;
54977;SDS011;40873;47.522;19.106;2024-01-06T11:27:24;20.92;;;12.10;;
54977;SDS011;40873;47.522;19.106;2024-01-06T11:30:00;18.20;;;11.70;;
54977;SDS011;40873;47.522;19.106;2024-01-06T11:32:33;27.33;;;14.82;;
54977;SDS011;40873;47.522;19.106;2024-01-06T11:35:05;25.98;;;12.73;;
54977;SDS011;40873;47.522;19.106;2024-01-06T11:37:36;23.58;;;13.00;;
54977;SDS011;40873;47.522;19.106;2024-01-06T11:40:24;24.45;;;13.07;;
54977;SDS011;40873;47.522;19.106;2024-01-06T11:43:07;24.67;;;13.82;;
54977;SDS011;40873;47.522;19.106;2024-01-06T11:45:37;25.10;;;13.10;;
54977;SDS011;40873;47.522;19.106;2024-01-06T11:48:09;18.98;;;11.30;;
54977;SDS011;40873;47.522;19.106;2024-01-06T11:50:40;20.17;;;12.32;;
54977;SDS011;40873;47.522;19.106;2024-01-06T11:53:07;22.05;;;11.45;;
54977;SDS011;40873;47.522;19.106;2024-01-06T11:55:40;22.95;;;13.27;;
54977;SDS011;40873;47.522;19.106;2024-01-06T11:58:08;22.48;;;13.10;;
54977;SDS011;40873;47.522;19.106;2024-01-06T12:00:35;23.45;;;12.77;;
54977;SDS011;40873;47.522;19.106;2024-01-06T12:03:06;22.90;;;13.25;;
54977;SDS011;40873;47.522;19.106;2024-01-06T12:05:33;22.38;;;12.73;;
54977;SDS011;40873;47.522;19.106;2024-01-06T12:08:00;30.40;;;13.65;;
54977;SDS011;40873;47.522;19.106;2024-01-06T12:10:31;28.65;;;13.18;;
54977;SDS011;40873;47.522;19.106;2024-01-06T12:13:05;20.90;;;13.15;;
54977;SDS011;40873;47.522;19.106;2024-01-06T12:15:38;22.92;;;14.35;;
54977;SDS011;40873;47.522;19.106;2024-01-06T12:18:06;21.58;;;11.52;;
54977;SDS011;40873;47.522;19.106;2024-01-06T12:20:34;22.40;;;12.48;;
54977;SDS011;40873;47.522;19.106;2024-01-06T12:23:01;22.77;;;13.25;;
54977;SDS011;40873;47.522;19.106;2024-01-06T12:25:34;23.40;;;13.02;;
54977;SDS011;40873;47.522;19.106;2024-01-06T12:28:09;24.10;;;12.65;;
54977;SDS011;40873;47.522;19.106;2024-01-06T12:30:37;23.40;;;13.10;;
54977;SDS011;40873;47.522;19.106;2024-01-06T12:33:05;24.70;;;13.25;;
54977;SDS011;40873;47.522;19.106;2024-01-06T12:35:34;22.15;;;12.82;;
54977;SDS011;40873;47.522;19.106;2024-01-06T12:38:01;21.38;;;13.13;;
54977;SDS011;40873;47.522;19.106;2024-01-06T12:43:02;20.48;;;11.93;;
54977;SDS011;40873;47.522;19.106;2024-01-06T12:45:29;24.58;;;12.65;;
54977;SDS011;40873;47.522;19.106;2024-01-06T12:47:56;22.55;;;13.57;;
54977;SDS011;40873;47.522;19.106;2024-01-06T12:50:24;24.05;;;12.88;;
54977;SDS011;40873;47.522;19.106;2024-01-06T12:52:51;27.65;;;14.70;;
54977;SDS011;40873;47.522;19.106;2024-01-06T12:55:18;23.65;;;13.55;;
54977;SDS011;40873;47.522;19.106;2024-01-06T12:57:45;26.13;;;14.48;;
54977;SDS011;40873;47.522;19.106;2024-01-06T13:00:12;27.27;;;13.52;;
54977;SDS011;40873;47.522;19.106;2024-01-06T13:02:40;28.92;;;14.77;;
54977;SDS011;40873;47.522;19.106;2024-01-06T13:05:07;23.80;;;14.10;;
54977;SDS011;40873;47.522;19.106;2024-01-06T13:07:35;25.13;;;13.38;;
54977;SDS011;40873;47.522;19.106;2024-01-06T13:10:03;28.70;;;15.80;;
54977;SDS011;40873;47.522;19.106;2024-01-06T13:12:30;29.08;;;16.08;;
54977;SDS011;40873;47.522;19.106;2024-01-06T13:14:58;27.95;;;15.07;;
54977;SDS011;40873;47.522;19.106;2024-01-06T13:17:26;27.48;;;16.63;;
54977;SDS011;40873;47.522;19.106;2024-01-06T13:19:54;28.70;;;15.57;;
54977;SDS011;40873;47.522;19.106;2024-01-06T13:22:23;23.65;;;13.27;;
54977;SDS011;40873;47.522;19.106;2024-01-06T13:24:50;24.55;;;13.35;;
54977;SDS011;40873;47.522;19.106;2024-01-06T13:27:19;27.08;;;13.98;;
54977;SDS011;40873;47.522;19.106;2024-01-06T13:29:47;21.52;;;14.18;;
54977;SDS011;40873;47.522;19.106;2024-01-06T13:32:14;31.02;;;15.55;;
54977;SDS011;40873;47.522;19.106;2024-01-06T13:34:42;30.35;;;15.88;;
54977;SDS011;40873;47.522;19.106;2024-01-06T13:37:09;26.63;;;14.85;;
54977;SDS011;40873;47.522;19.106;2024-01-06T13:39:36;28.83;;;16.90;;
54977;SDS011;40873;47.522;19.106;2024-01-06T13:42:03;29.58;;;16.45;;
54977;SDS011;40873;47.522;19.106;2024-01-06T13:44:31;31.15;;;18.00;;
54977;SDS011;40873;47.522;19.106;2024-01-06T13:46:58;30.35;;;18.05;;
54977;SDS011;40873;47.522;19.106;2024-01-06T13:49:25;27.98;;;16.48;;
54977;SDS011;40873;47.522;19.106;2024-01-06T13:51:52;29.48;;;15.32;;
54977;SDS011;40873;47.522;19.106;2024-01-06T13:54:19;26.63;;;15.55;;
54977;SDS011;40873;47.522;19.106;2024-01-06T13:56:49;22.67;;;14.68;;
54977;SDS011;40873;47.522;19.106;2024-01-06T13:59:17;31.15;;;16.33;;
54977;SDS011;40873;47.522;19.106;2024-01-06T14:01:44;26.33;;;16.30;;
54977;SDS011;40873;47.522;19.106;2024-01-06T14:04:11;25.10;;;14.63;;
54977;SDS011;40873;47.522;19.106;2024-01-06T14:06:39;27.33;;;14.05;;
54977;SDS011;40873;47.522;19.106;2024-01-06T14:09:07;24.75;;;14.48;;
54977;SDS011;40873;47.522;19.106;2024-01-06T14:11:33;25.70;;;14.18;;
54977;SDS011;40873;47.522;19.106;2024-01-06T14:14:01;29.73;;;14.88;;
54977;SDS011;40873;47.522;19.106;2024-01-06T14:16:28;27.98;;;15.00;;
54977;SDS011;40873;47.522;19.106;2024-01-06T14:18:55;26.67;;;15.43;;
54977;SDS011;40873;47.522;19.106;2024-01-06T14:21:22;29.50;;;17.63;;